Time;durP1;ratioP1;P1;durP2;ratioP2;P2;SDS_P1;SDS_P2;PMS_P1;PMS_P2;Temp;Humidity;BMP_temperature;BMP_pressure;BME280_temperature;BME280_humidity;BME280_pressure;Samples;Min_cycle;Max_cycle;Signal;HPM_P1;HPM_P2
2021/09/24 00:01:39;;;;;;;13.70;8.75;;;;;;;6.29;99.51;97729.69;4995221;28;20500;-76
2021/09/24 00:04:06;;;;;;;13.13;9.05;;;;;;;6.42;100.00;97747.72;4994966;28;20026;-76
2021/09/24 00:06:32;;;;;;;11.48;8.20;;;;;;;6.75;100.00;97803.88;4995081;28;20031;-76
2021/09/24 00:08:57;;;;;;;15.13;8.60;;;;;;;6.76;99.67;97797.63;5010295;28;20030;-75
2021/09/24 00:11:23;;;;;;;13.23;8.85;;;;;;;6.65;100.00;97769.75;4993530;28;20030;-76
2021/09/24 00:13:48;;;;;;;14.82;8.48;;;;;;;6.32;100.00;97721.59;4995087;28;20501;-76
2021/09/24 00:16:14;;;;;;;15.98;9.48;;;;;;;6.54;100.00;97746.31;4994566;28;20030;-75
2021/09/24 00:18:40;;;;;;;14.77;8.90;;;;;;;6.78;100.00;97784.25;4993374;28;20486;-75
2021/09/24 00:21:05;;;;;;;13.00;9.38;;;;;;;6.82;100.00;97776.09;4993424;28;20029;-76
2021/09/24 00:23:31;;;;;;;13.88;8.95;;;;;;;6.73;100.00;97776.50;5009553;28;20112;-75
2021/09/24 00:25:57;;;;;;;15.32;9.32;;;;;;;6.68;100.00;97773.16;4994686;28;20395;-75
2021/09/24 00:28:22;;;;;;;12.95;9.25;;;;;;;6.45;100.00;97741.41;4993223;28;20037;-76
2021/09/24 00:30:48;;;;;;;17.95;9.55;;;;;;;6.24;100.00;97711.31;4994644;28;20474;-75
2021/09/24 00:33:13;;;;;;;15.68;9.13;;;;;;;6.39;100.00;97742.53;4993348;28;20037;-76
2021/09/24 00:35:39;;;;;;;14.63;9.55;;;;;;;6.61;100.00;97777.03;4994050;28;20050;-76
2021/09/24 00:38:05;;;;;;;18.80;9.98;;;;;;;6.48;100.00;97767.84;4993273;28;20049;-75
2021/09/24 00:40:34;;;;;;;17.90;10.15;;;;;;;6.55;100.00;97785.25;4993537;28;20030;-75
2021/09/24 00:43:00;;;;;;;13.90;9.40;;;;;;;6.17;100.00;97731.06;4994481;28;20037;-75
2021/09/24 00:45:26;;;;;;;16.45;9.25;;;;;;;6.22;100.00;97741.47;4992970;28;20513;-76
2021/09/24 00:47:52;;;;;;;13.90;8.98;;;;;;;6.33;100.00;97771.13;4993040;28;20022;-76
2021/09/24 00:50:17;;;;;;;14.30;8.65;;;;;;;5.90;100.00;97714.50;4994249;28;20026;-75
2021/09/24 00:52:43;;;;;;;13.70;9.18;;;;;;;5.93;100.00;97725.00;4992536;28;20032;-76
2021/09/24 00:55:09;;;;;;;15.55;8.75;;;;;;;5.88;100.00;97712.81;4992733;28;20033;-75
2021/09/24 00:57:34;;;;;;;15.23;8.70;;;;;;;6.16;100.00;97755.00;4992584;28;20033;-75
2021/09/24 01:00:00;;;;;;;13.07;8.70;;;;;;;6.06;100.00;97737.75;4992909;28;20026;-75
2021/09/24 01:02:26;;;;;;;17.85;9.30;;;;;;;5.97;100.00;97729.22;4992585;28;20083;-75
2021/09/24 01:04:51;;;;;;;13.45;9.35;;;;;;;5.70;100.00;97671.06;5003919;28;20025;-75
2021/09/24 01:07:17;;;;;;;16.35;8.75;;;;;;;5.73;100.00;97676.25;5019881;28;20207;-77
2021/09/24 01:09:42;;;;;;;13.02;8.20;;;;;;;5.68;100.00;97655.22;5013279;28;20036;-77
2021/09/24 01:12:09;;;;;;;12.07;8.88;;;;;;;5.89;100.00;97688.88;5013337;28;20018;-76
2021/09/24 01:14:35;;;;;;;13.75;8.38;;;;;;;6.16;100.00;97717.84;5013258;28;20022;-76
2021/09/24 01:17:00;;;;;;;14.10;8.63;;;;;;;5.89;100.00;97672.94;5012235;28;20076;-77
2021/09/24 01:19:27;;;;;;;15.00;8.95;;;;;;;5.90;100.00;97668.50;4995838;28;20022;-77
2021/09/24 01:21:53;;;;;;;16.90;9.48;;;;;;;5.72;100.00;97653.31;4995472;28;20579;-76
2021/09/24 01:24:19;;;;;;;15.73;9.15;;;;;;;5.81;100.00;97664.41;5013442;28;20034;-76
2021/09/24 01:26:50;;;;;;;13.70;8.80;;;;;;;5.49;100.00;97630.34;5013024;28;20030;-76
2021/09/24 01:29:17;;;;;;;15.18;8.85;;;;;;;5.94;100.00;97708.09;5013416;28;20022;-76
2021/09/24 01:31:44;;;;;;;17.65;9.68;;;;;;;6.03;100.00;97727.25;5012372;28;20421;-76
2021/09/24 01:34:10;;;;;;;16.98;9.20;;;;;;;5.89;100.00;97709.22;5012386;28;20030;-76
2021/09/24 01:36:36;;;;;;;17.13;9.77;;;;;;;5.88;100.00;97702.19;4996290;28;20054;-76
2021/09/24 01:39:05;;;;;;;17.27;10.70;;;;;;;5.66;100.00;97672.13;5013130;28;20057;-76
2021/09/24 01:41:31;;;;;;;15.88;10.15;;;;;;;5.81;100.00;97701.56;5014089;28;20025;-76
2021/09/24 01:43:57;;;;;;;14.75;10.07;;;;;;;5.75;100.00;97691.16;5015277;28;20026;-76
2021/09/24 01:46:22;;;;;;;16.05;10.38;;;;;;;5.91;100.00;97724.16;5013988;28;20508;-76
2021/09/24 01:48:48;;;;;;;17.88;10.27;;;;;;;5.84;100.00;97692.59;5011664;28;20032;-76
2021/09/24 01:51:13;;;;;;;18.27;9.57;;;;;;;5.81;100.00;97693.59;5012092;28;20052;-75
2021/09/24 01:53:39;;;;;;;14.10;9.85;;;;;;;5.56;100.00;97642.44;4995277;28;20378;-76
2021/09/24 01:56:04;;;;;;;25.58;9.80;;;;;;;5.75;100.00;97664.63;4995159;28;20022;-76
2021/09/24 01:58:30;;;;;;;17.92;9.70;;;;;;;5.77;100.00;97673.41;4994736;28;20037;-76
2021/09/24 02:00:56;;;;;;;17.05;10.25;;;;;;;5.58;100.00;97643.25;5008441;28;20026;-76
2021/09/24 02:03:21;;;;;;;16.42;10.05;;;;;;;5.95;100.00;97693.91;4993057;28;20022;-76
2021/09/24 02:05:47;;;;;;;19.60;11.30;;;;;;;6.02;100.00;97696.31;4992844;28;20486;-77
2021/09/24 02:08:12;;;;;;;17.20;10.73;;;;;;;5.81;100.00;97659.09;4991887;28;20026;-76
2021/09/24 02:10:38;;;;;;;15.63;9.95;;;;;;;5.68;100.00;97641.94;4993515;28;20487;-77
2021/09/24 02:13:04;;;;;;;15.82;10.68;;;;;;;5.78;100.00;97648.56;4992097;28;20026;-76
2021/09/24 02:15:29;;;;;;;24.17;13.65;;;;;;;6.06;100.00;97705.91;5008059;28;20036;-76
2021/09/24 02:17:55;;;;;;;19.95;12.43;;;;;;;5.87;100.00;97677.47;4993580;28;20034;-76
2021/09/24 02:20:21;;;;;;;22.05;12.98;;;;;;;5.81;100.00;97675.03;4992657;28;20030;-77
2021/09/24 02:22:47;;;;;;;22.10;14.07;;;;;;;5.87;100.00;97679.25;4991533;28;20019;-76
2021/09/24 02:25:12;;;;;;;29.85;15.50;;;;;;;5.60;100.00;97646.69;5007957;28;20030;-77
2021/09/24 02:27:38;;;;;;;23.58;14.18;;;;;;;5.37;100.00;97641.47;4991995;28;20030;-77
2021/09/24 02:30:05;;;;;;;25.73;15.25;;;;;;;5.47;100.00;97664.03;5007954;28;20022;-76
2021/09/24 02:32:30;;;;;;;24.58;12.57;;;;;;;5.26;100.00;97643.69;4992673;28;20029;-77
2021/09/24 02:34:56;;;;;;;21.45;11.60;;;;;;;5.52;100.00;97699.19;4992795;28;20082;-77
2021/09/24 02:37:22;;;;;;;22.55;13.10;;;;;;;5.23;100.00;97665.00;4991808;28;20088;-76
2021/09/24 02:39:47;;;;;;;23.17;13.60;;;;;;;5.11;100.00;97638.94;5010530;28;20038;-76
2021/09/24 02:42:13;;;;;;;23.88;13.98;;;;;;;5.33;100.00;97687.56;4991696;28;20117;-77
2021/09/24 02:44:39;;;;;;;24.98;14.35;;;;;;;4.82;100.00;97603.84;5008388;28;20029;-77
2021/09/24 02:47:08;;;;;;;26.55;15.55;;;;;;;5.31;100.00;97686.78;5008315;28;20026;-77
2021/09/24 02:49:34;;;;;;;25.85;15.50;;;;;;;5.17;100.00;97663.44;5007773;28;20537;-76
2021/09/24 02:51:59;;;;;;;24.73;13.98;;;;;;;5.03;100.00;97644.56;5007418;28;20027;-77
2021/09/24 02:54:25;;;;;;;33.92;14.55;;;;;;;5.03;100.00;97655.16;5008220;28;20027;-77
2021/09/24 02:56:50;;;;;;;21.48;12.70;;;;;;;5.18;100.00;97673.13;4992148;28;20084;-77
2021/09/24 02:59:16;;;;;;;26.25;13.98;;;;;;;5.14;100.00;97668.00;4993668;28;20035;-77
2021/09/24 03:01:41;;;;;;;26.48;13.90;;;;;;;4.70;100.00;97643.19;4993877;28;20034;-77
2021/09/24 03:04:07;;;;;;;30.50;13.95;;;;;;;4.66;100.00;97641.56;4993307;28;20505;-78
2021/09/24 03:06:32;;;;;;;24.08;13.30;;;;;;;4.57;100.00;97592.47;4992819;28;20509;-77
2021/09/24 03:08:58;;;;;;;31.15;13.95;;;;;;;5.01;100.00;97672.94;4992131;28;20504;-77
2021/09/24 03:11:24;;;;;;;24.35;14.10;;;;;;;4.86;100.00;97650.50;4993767;28;20026;-77
2021/09/24 03:13:49;;;;;;;27.25;13.27;;;;;;;4.91;100.00;97643.25;5009290;28;20026;-76
2021/09/24 03:16:20;;;;;;;25.50;12.93;;;;;;;4.98;100.00;97659.78;5012859;28;20029;-78
2021/09/24 03:19:20;;;;;;;24.77;12.50;;;;;;;5.03;100.00;97662.25;4997516;28;20023;-77
2021/09/24 03:21:47;;;;;;;24.92;12.50;;;;;;;4.69;100.00;97620.25;4997898;28;20573;-76
2021/09/24 03:24:31;;;;;;;23.90;13.68;;;;;;;5.04;100.00;97659.56;4996547;28;20037;-76
2021/09/24 03:26:56;;;;;;;29.77;13.18;;;;;;;4.64;100.00;97593.09;5012369;28;20018;-77
2021/09/24 03:29:22;;;;;;;28.77;13.57;;;;;;;4.94;100.00;97636.97;4996356;28;20553;-75
2021/09/24 03:31:48;;;;;;;23.55;12.80;;;;;;;4.87;100.00;97630.16;4997168;28;20065;-76
2021/09/24 03:34:13;;;;;;;21.23;12.43;;;;;;;5.06;100.00;97662.13;5002822;28;20496;-78
2021/09/24 03:36:39;;;;;;;25.60;12.43;;;;;;;5.12;100.00;97667.19;4994244;28;20527;-75
2021/09/24 03:39:10;;;;;;;42.97;18.45;;;;;;;5.16;100.00;97671.47;4995435;28;20030;-76
2021/09/24 03:41:37;;;;;;;33.50;16.58;;;;;;;4.74;100.00;97600.63;4994371;28;20490;-76
2021/09/24 03:44:03;;;;;;;28.92;15.02;;;;;;;5.01;100.00;97642.91;4994494;28;20435;-76
2021/09/24 03:46:28;;;;;;;31.95;15.63;;;;;;;5.16;100.00;97668.81;4988565;28;20130;-75
2021/09/24 03:48:54;;;;;;;26.58;15.57;;;;;;;4.90;100.00;97609.72;4995654;28;20054;-76
2021/09/24 03:54:41;;;;;;;25.02;13.85;;;;;;;5.55;100.00;97667.25;4999728;28;20033;-77
2021/09/24 03:57:06;;;;;;;29.23;15.38;;;;;;;5.59;100.00;97652.94;5009599;28;20034;-77
2021/09/24 03:59:32;;;;;;;23.85;13.43;;;;;;;5.59;100.00;97636.16;4992716;28;20097;-76
2021/09/24 04:01:57;;;;;;;22.33;12.82;;;;;;;5.73;100.00;97655.88;5003926;28;20113;-76
2021/09/24 04:04:23;;;;;;;27.55;13.40;;;;;;;5.70;100.00;97639.22;5013057;28;20025;-75
2021/09/24 04:06:48;;;;;;;26.85;15.85;;;;;;;5.64;100.00;97628.84;4994912;28;20477;-79
2021/09/24 04:09:14;;;;;;;33.60;16.60;;;;;;;5.66;100.00;97617.25;4978261;28;20053;-77
2021/09/24 04:11:40;;;;;;;74.10;34.33;;;;;;;5.59;100.00;97610.50;4992473;28;20410;-76
2021/09/24 04:14:06;;;;;;;53.17;25.40;;;;;;;5.70;100.00;97653.34;4993868;28;20023;-76
2021/09/24 04:16:32;;;;;;;30.27;13.95;;;;;;;5.46;100.00;97630.47;4993601;28;20030;-77
2021/09/24 04:18:58;;;;;;;29.42;16.38;;;;;;;5.12;100.00;97592.97;4977244;28;20496;-77
2021/09/24 04:21:23;;;;;;;28.83;13.65;;;;;;;5.09;100.00;97593.09;4994868;28;20026;-75
2021/09/24 04:23:49;;;;;;;27.25;15.63;;;;;;;5.37;100.00;97636.16;4977156;28;20030;-76
2021/09/24 04:26:15;;;;;;;24.90;12.68;;;;;;;5.42;100.00;97645.66;4992605;28;20039;-77
2021/09/24 04:28:41;;;;;;;26.58;13.88;;;;;;;5.31;100.00;97608.09;4994123;28;20036;-76
2021/09/24 04:31:06;;;;;;;31.85;17.13;;;;;;;5.64;100.00;97645.66;4976992;28;20104;-77
2021/09/24 04:33:32;;;;;;;26.38;13.52;;;;;;;5.32;100.00;97558.56;4994829;28;20026;-77
2021/09/24 04:35:58;;;;;;;21.10;12.18;;;;;;;5.77;100.00;97620.34;4993900;28;20081;-78
2021/09/24 04:38:23;;;;;;;28.17;13.35;;;;;;;5.98;100.00;97647.78;4994587;28;20029;-77
2021/09/24 04:40:49;;;;;;;25.00;13.90;;;;;;;6.09;100.00;97645.53;4994038;28;20037;-78
2021/09/24 04:43:14;;;;;;;24.40;14.35;;;;;;;5.99;100.00;97620.34;4977529;28;20026;-78
2021/09/24 04:45:40;;;;;;;25.17;14.07;;;;;;;6.19;98.70;97640.69;4994360;28;20030;-79
2021/09/24 04:48:06;;;;;;;30.27;13.20;;;;;;;6.04;97.95;97601.53;4993976;28;20038;-78
2021/09/24 04:50:32;;;;;;;29.35;13.63;;;;;;;5.89;97.57;97584.47;4994134;28;20026;-78
2021/09/24 04:52:57;;;;;;;28.02;12.50;;;;;;;5.92;97.33;97577.25;4993781;28;20488;-77
2021/09/24 04:55:23;;;;;;;24.45;12.82;;;;;;;5.82;96.94;97549.34;4976317;28;20105;-77
2021/09/24 04:57:49;;;;;;;23.40;12.95;;;;;;;6.01;97.28;97565.38;4976795;28;20032;-77
2021/09/24 05:00:15;;;;;;;21.92;11.88;;;;;;;6.03;96.89;97568.81;4992268;28;20033;-77
2021/09/24 05:02:40;;;;;;;25.23;14.35;;;;;;;5.92;97.42;97529.47;4976356;28;20038;-77
2021/09/24 05:05:07;;;;;;;35.17;15.98;;;;;;;6.47;97.02;97601.38;4992226;28;20030;-77
2021/09/24 05:07:33;;;;;;;32.88;13.80;;;;;;;6.75;95.37;97617.81;4976142;28;20022;-77
2021/09/24 05:09:58;;;;;;;33.85;14.85;;;;;;;6.82;94.75;97597.13;4975877;28;20037;-76
2021/09/24 05:12:24;;;;;;;30.33;14.88;;;;;;;6.91;93.11;97610.84;4993514;28;20034;-77
2021/09/24 05:14:50;;;;;;;29.35;14.48;;;;;;;7.08;91.60;97600.28;4975957;28;20474;-77
2021/09/24 05:17:15;;;;;;;36.85;14.45;;;;;;;7.17;90.81;97601.63;4993412;28;20064;-77
2021/09/24 05:19:41;;;;;;;32.95;14.32;;;;;;;7.21;87.98;97581.06;4992056;28;20061;-77
2021/09/24 05:22:06;;;;;;;25.58;14.07;;;;;;;7.37;88.62;97598.03;4992041;28;20517;-77
2021/09/24 05:24:32;;;;;;;29.95;14.07;;;;;;;7.31;87.07;97537.13;4992846;28;20029;-77
2021/09/24 05:27:00;;;;;;;22.48;12.82;;;;;;;7.86;85.09;97546.75;4975637;28;20038;-76
2021/09/24 05:29:31;;;;;;;22.55;12.52;;;;;;;8.48;82.78;97599.47;4993183;28;20106;-77
2021/09/24 05:31:57;;;;;;;19.52;11.55;;;;;;;9.03;79.60;97600.00;4991665;28;20042;-77
2021/09/24 05:34:22;;;;;;;25.92;13.13;;;;;;;9.24;78.49;97596.16;4993083;28;20033;-79
2021/09/24 05:36:49;;;;;;;24.92;12.45;;;;;;;9.90;75.49;97579.91;4974969;28;20136;-77
2021/09/24 05:39:14;;;;;;;28.38;12.45;;;;;;;10.68;72.21;97579.59;4975546;28;20029;-77
2021/09/24 05:41:40;;;;;;;25.38;13.25;;;;;;;11.20;71.06;97587.00;4993139;28;20022;-77
2021/09/24 05:44:06;;;;;;;21.73;12.27;;;;;;;10.85;69.92;97538.41;4991726;28;20533;-76
2021/09/24 05:46:32;;;;;;;22.23;12.90;;;;;;;11.87;65.90;97570.13;4993332;28;20026;-77
2021/09/24 05:48:57;;;;;;;21.05;12.30;;;;;;;12.47;61.70;97540.94;5000985;28;20034;-77
2021/09/24 05:51:23;;;;;;;24.17;12.57;;;;;;;12.94;60.63;97537.59;4995250;28;20141;-76
2021/09/24 05:53:49;;;;;;;35.30;13.55;;;;;;;13.29;59.46;97570.03;4991743;28;20096;-76
2021/09/24 05:56:14;;;;;;;39.90;13.63;;;;;;;12.62;60.12;97533.66;4992806;28;20023;-77
2021/09/24 05:58:40;;;;;;;23.90;13.73;;;;;;;12.60;59.94;97541.81;4975310;28;20030;-77
2021/09/24 06:01:05;;;;;;;40.53;14.85;;;;;;;12.33;61.17;97566.06;4974963;28;20042;-76
2021/09/24 06:03:31;;;;;;;31.88;14.68;;;;;;;12.24;62.79;97585.44;4991764;28;20077;-76
2021/09/24 06:05:57;;;;;;;34.63;15.50;;;;;;;12.40;62.06;97578.06;4975122;28;20032;-77
2021/09/24 06:08:22;;;;;;;33.00;14.02;;;;;;;12.88;60.36;97578.31;4992521;28;20058;-76
2021/09/24 06:10:48;;;;;;;26.23;14.40;;;;;;;12.97;61.10;97585.72;4991419;28;20034;-75
2021/09/24 06:13:13;;;;;;;39.67;16.15;;;;;;;13.61;58.39;97559.59;4991097;28;20030;-75
2021/09/24 06:15:39;;;;;;;32.08;14.82;;;;;;;14.03;57.25;97553.69;4992575;28;20429;-76
2021/09/24 06:18:05;;;;;;;31.80;15.95;;;;;;;14.80;55.28;97580.00;4991234;28;20413;-83
2021/09/24 06:20:31;;;;;;;32.60;16.98;;;;;;;15.04;54.09;97561.06;4974762;28;20037;-83
2021/09/24 06:22:56;;;;;;;31.50;15.98;;;;;;;14.38;55.90;97562.66;4984460;28;20086;-82
2021/09/24 06:25:22;;;;;;;24.35;14.00;;;;;;;14.24;56.31;97548.53;4988175;28;20577;-84
2021/09/24 06:27:49;;;;;;;25.17;13.07;;;;;;;13.83;57.48;97547.13;4996728;28;20048;-76
2021/09/24 06:30:20;;;;;;;20.77;11.32;;;;;;;14.27;55.78;97549.16;5004338;28;20478;-76
2021/09/24 06:32:45;;;;;;;32.00;12.13;;;;;;;14.85;54.65;97541.94;5007384;28;20022;-76
2021/09/24 06:35:12;;;;;;;21.48;12.57;;;;;;;15.11;53.77;97552.34;5007069;28;20054;-76
2021/09/24 06:37:38;;;;;;;17.33;11.68;;;;;;;15.41;53.12;97543.63;4988296;28;20029;-86
2021/09/24 06:40:05;;;;;;;25.20;11.50;;;;;;;15.64;51.79;97533.69;4989475;28;20129;-77
2021/09/24 06:42:31;;;;;;;25.67;11.75;;;;;;;16.53;50.14;97542.25;4996422;28;20030;-78
2021/09/24 06:44:57;;;;;;;19.60;11.23;;;;;;;17.06;48.34;97528.66;5015429;28;20029;-76
2021/09/24 06:47:24;;;;;;;20.58;10.57;;;;;;;18.53;45.69;97512.41;5006909;28;20050;-78
2021/09/24 06:49:50;;;;;;;18.35;11.77;;;;;;;18.94;44.39;97509.31;5010843;28;20030;-77
2021/09/24 06:52:15;;;;;;;16.33;9.65;;;;;;;19.79;42.40;97522.66;5011020;28;20023;-77
2021/09/24 06:54:41;;;;;;;27.77;10.48;;;;;;;20.24;41.19;97492.72;4999600;28;20399;-77
2021/09/24 06:57:07;;;;;;;20.95;9.63;;;;;;;20.56;40.99;97503.91;5017756;28;20109;-75
2021/09/24 06:59:32;;;;;;;15.85;8.75;;;;;;;20.51;40.19;97492.66;5000610;28;20498;-76
2021/09/24 07:01:58;;;;;;;18.63;7.80;;;;;;;20.69;40.00;97487.16;5003667;28;20058;-78
2021/09/24 07:04:23;;;;;;;24.63;9.25;;;;;;;20.98;39.88;97482.25;5002289;28;20510;-77
2021/09/24 07:06:49;;;;;;;21.90;9.00;;;;;;;20.91;40.21;97487.50;4997477;28;20026;-77
2021/09/24 07:09:15;;;;;;;27.00;8.88;;;;;;;21.11;39.39;97487.28;5001173;28;20041;-77
2021/09/24 07:11:42;;;;;;;21.00;9.00;;;;;;;21.57;39.04;97498.56;5015336;28;20113;-77
2021/09/24 07:14:10;;;;;;;14.55;9.57;;;;;;;21.13;39.85;97502.47;5015352;28;20095;-77
2021/09/24 07:16:37;;;;;;;23.95;8.48;;;;;;;21.42;39.28;97491.19;5016596;28;20108;-76
2021/09/24 07:19:03;;;;;;;14.45;8.27;;;;;;;21.30;40.22;97500.66;5007583;28;20022;-77
2021/09/24 07:21:28;;;;;;;14.35;9.30;;;;;;;21.77;38.84;97520.09;4980828;28;20149;-77
2021/09/24 07:23:54;;;;;;;15.80;8.07;;;;;;;22.50;37.01;97515.66;4998003;28;20045;-77
2021/09/24 07:26:19;;;;;;;10.65;7.80;;;;;;;22.73;36.34;97513.97;4995796;28;20026;-76
2021/09/24 07:28:45;;;;;;;15.75;8.10;;;;;;;22.78;36.78;97514.31;4996267;28;20489;-76
2021/09/24 07:31:11;;;;;;;17.30;7.25;;;;;;;23.02;35.50;97513.41;4982604;28;20026;-77
2021/09/24 07:33:36;;;;;;;10.05;5.35;;;;;;;21.60;36.70;97489.22;4996332;28;20493;-77
2021/09/24 07:36:02;;;;;;;11.38;6.68;;;;;;;21.66;37.73;97547.63;4999203;28;20061;-77
2021/09/24 07:38:28;;;;;;;16.55;7.82;;;;;;;22.20;37.19;97538.09;5005784;28;20030;-77
2021/09/24 07:40:53;;;;;;;11.73;6.72;;;;;;;22.05;37.57;97532.47;4989305;28;20092;-78
2021/09/24 07:43:19;;;;;;;14.15;6.10;;;;;;;21.97;37.72;97525.09;4979500;28;20026;-75
2021/09/24 07:45:45;;;;;;;16.88;7.32;;;;;;;21.71;37.69;97528.91;4997068;28;20038;-78
2021/09/24 07:48:12;;;;;;;9.60;6.65;;;;;;;22.04;37.63;97542.50;4999648;28;20053;-77
2021/09/24 07:50:37;;;;;;;12.75;7.00;;;;;;;22.89;36.38;97529.47;4997874;28;20077;-76
2021/09/24 07:53:03;;;;;;;10.73;6.30;;;;;;;22.65;36.12;97531.19;4999273;28;20026;-76
2021/09/24 07:55:28;;;;;;;22.60;7.15;;;;;;;22.89;35.97;97519.41;4984968;28;20069;-77
2021/09/24 07:57:57;;;;;;;10.40;7.05;;;;;;;22.23;36.72;97505.06;5001730;28;20094;-76
2021/09/24 08:00:24;;;;;;;22.92;6.80;;;;;;;22.87;35.88;97496.06;4984559;28;20034;-77
2021/09/24 08:02:50;;;;;;;10.90;6.85;;;;;;;23.60;35.33;97504.91;5001411;28;20026;-76
2021/09/24 08:05:18;;;;;;;7.70;6.00;;;;;;;24.50;33.25;97517.06;4999953;28;20026;-76
2021/09/24 08:07:44;;;;;;;9.73;6.50;;;;;;;25.10;30.97;97501.47;5017167;28;20061;-76
2021/09/24 08:10:10;;;;;;;8.75;6.47;;;;;;;25.42;30.38;97500.28;4999325;28;20033;-76
2021/09/24 08:12:36;;;;;;;7.85;5.88;;;;;;;25.68;31.03;97499.84;5003670;28;20510;-77
2021/09/24 08:15:02;;;;;;;6.90;5.25;;;;;;;26.76;29.35;97501.47;4991962;28;20097;-77
2021/09/24 08:17:27;;;;;;;12.52;6.88;;;;;;;26.63;29.60;97506.00;5013422;28;20030;-77
2021/09/24 08:19:53;;;;;;;17.83;5.78;;;;;;;25.92;29.93;97488.53;4997883;28;20030;-77
2021/09/24 08:22:18;;;;;;;10.05;6.35;;;;;;;25.85;30.74;97496.69;4999461;28;20126;-77
2021/09/24 08:24:44;;;;;;;17.42;6.40;;;;;;;26.15;30.66;97507.56;4998950;28;20066;-76
2021/09/24 08:27:11;;;;;;;9.57;6.18;;;;;;;26.74;29.38;97487.13;4983304;28;20054;-77
2021/09/24 08:29:36;;;;;;;13.70;6.03;;;;;;;25.73;29.73;97457.09;4995167;28;20033;-77
2021/09/24 08:32:03;;;;;;;8.48;5.43;;;;;;;26.99;28.92;97479.31;4995433;28;20054;-77
2021/09/24 08:34:28;;;;;;;12.98;5.45;;;;;;;27.54;27.99;97477.59;4999015;28;20321;-77
2021/09/24 08:36:54;;;;;;;10.45;5.63;;;;;;;28.30;27.13;97473.72;5009634;28;20053;-77
2021/09/24 08:39:19;;;;;;;7.70;4.93;;;;;;;28.72;26.24;97447.75;4993333;28;20053;-77
2021/09/24 08:41:45;;;;;;;6.70;5.30;;;;;;;28.93;25.52;97442.88;5005578;28;20101;-77
2021/09/24 08:44:10;;;;;;;14.13;5.28;;;;;;;29.24;25.39;97427.59;4998997;28;20033;-78
2021/09/24 08:46:36;;;;;;;6.97;6.22;;;;;;;28.57;27.08;97430.56;5006683;28;20045;-78
2021/09/24 08:49:06;;;;;;;7.18;4.65;;;;;;;29.92;24.85;97420.63;5003000;28;20034;-77
2021/09/24 08:51:34;;;;;;;13.63;5.43;;;;;;;29.84;25.07;97426.41;5013867;28;20026;-78
2021/09/24 08:54:03;;;;;;;7.90;4.80;;;;;;;29.27;25.36;97439.06;5001371;28;20034;-75
2021/09/24 08:56:29;;;;;;;9.10;5.25;;;;;;;29.45;24.70;97422.66;5012624;28;20062;-76
2021/09/24 08:58:54;;;;;;;9.80;4.82;;;;;;;29.13;25.42;97415.31;5000373;28;20018;-76
2021/09/24 09:01:20;;;;;;;7.35;4.65;;;;;;;30.23;24.82;97439.13;5013078;28;20497;-76
2021/09/24 09:03:47;;;;;;;8.20;4.72;;;;;;;30.42;24.83;97436.28;5000919;28;20029;-76
2021/09/24 09:06:17;;;;;;;9.20;4.32;;;;;;;30.37;24.24;97421.41;4999214;28;20034;-77
2021/09/24 09:08:44;;;;;;;7.05;4.28;;;;;;;30.40;23.77;97430.13;5003240;28;20045;-78
2021/09/24 09:11:30;;;;;;;14.65;5.10;;;;;;;30.68;23.97;97420.56;4984373;28;20375;-77
2021/09/24 09:13:57;;;;;;;9.00;4.28;;;;;;;30.66;23.78;97406.13;4997970;28;20425;-76
2021/09/24 09:16:28;;;;;;;8.05;4.32;;;;;;;30.30;24.33;97424.19;4996642;28;20432;-77
2021/09/24 09:19:16;;;;;;;6.45;4.07;;;;;;;30.05;24.46;97410.38;4996366;28;20422;-77
2021/09/24 09:21:43;;;;;;;39.45;13.05;;;;;;;30.27;24.50;97416.34;4964438;28;20038;-77
2021/09/24 09:24:18;;;;;;;11.23;4.80;;;;;;;30.94;23.05;97421.22;4996036;28;20104;-77
2021/09/24 09:26:45;;;;;;;13.15;5.38;;;;;;;31.27;23.00;97417.28;4981377;28;20490;-77
2021/09/24 09:29:11;;;;;;;7.25;3.70;;;;;;;31.14;22.10;97393.38;4981451;28;20061;-77
2021/09/24 09:31:37;;;;;;;17.33;4.35;;;;;;;31.61;21.81;97411.19;4998867;28;20026;-76
2021/09/24 09:34:05;;;;;;;10.77;4.43;;;;;;;31.23;22.95;97402.22;4998038;28;20033;-76
2021/09/24 09:36:42;;;;;;;3.83;3.20;;;;;;;30.96;20.29;97380.38;4981897;28;20051;-77
2021/09/24 09:39:32;;;;;;;8.40;4.25;;;;;;;31.41;20.10;97389.25;4989939;28;20026;-76
2021/09/24 09:41:58;;;;;;;19.80;15.10;;;;;;;32.15;19.39;97386.22;4976034;28;20481;-77
2021/09/24 09:44:31;;;;;;;3.33;3.05;;;;;;;32.54;19.22;97378.38;4977514;28;20035;-77
2021/09/24 09:46:56;;;;;;;5.60;2.97;;;;;;;33.26;18.50;97377.16;5001247;28;20034;-76
2021/09/24 09:49:25;;;;;;;3.50;3.20;;;;;;;34.20;17.55;97359.22;4987052;28;20037;-77
2021/09/24 09:52:09;;;;;;;6.95;3.35;;;;;;;34.04;17.27;97357.19;4988379;28;20026;-78
2021/09/24 09:54:36;;;;;;;3.42;2.60;;;;;;;33.73;17.41;97339.94;4987737;28;20629;-78
2021/09/24 09:57:14;;;;;;;6.32;3.08;;;;;;;33.38;17.25;97336.38;5004172;28;20410;-77
2021/09/24 09:59:40;;;;;;;3.15;2.85;;;;;;;33.48;17.42;97342.13;5005026;28;20022;-78
2021/09/24 10:02:16;;;;;;;5.38;2.83;;;;;;;33.42;17.62;97340.34;5002145;28;20104;-77
2021/09/24 10:04:42;;;;;;;20.13;12.85;;;;;;;34.20;16.99;97359.22;4998413;28;20030;-77
2021/09/24 10:07:15;;;;;;;4.28;3.67;;;;;;;33.63;17.21;97330.53;5000509;28;20022;-78
2021/09/24 10:09:42;;;;;;;4.18;3.10;;;;;;;32.78;18.06;97334.94;5004258;28;20056;-78
2021/09/24 10:12:34;;;;;;;4.65;3.47;;;;;;;33.57;17.38;97343.44;4988623;28;20022;-77
2021/09/24 10:14:59;;;;;;;;;;;;;;;33.87;17.71;97357.13;4983996;28;20080;-78
2021/09/24 10:17:25;;;;;;;12.27;2.78;;;;;;;32.91;17.55;97334.72;5002213;28;19910;-77
2021/09/24 10:19:53;;;;;;;3.88;2.47;;;;;;;33.77;17.87;97343.91;5002247;28;20430;-78
2021/09/24 10:22:19;;;;;;;7.05;2.92;;;;;;;34.18;17.26;97320.56;4989113;28;20045;-77
2021/09/24 10:24:45;;;;;;;3.33;2.65;;;;;;;34.78;17.14;97334.69;5005203;28;20086;-78
2021/09/24 10:27:33;;;;;;;3.92;2.45;;;;;;;34.94;16.85;97323.81;4990504;28;20034;-78
2021/09/24 10:30:06;;;;;;;5.53;2.85;;;;;;;34.37;17.12;97321.16;5008911;28;20138;-78
2021/09/24 10:32:31;;;;;;;3.45;2.63;;;;;;;34.64;16.28;97313.88;5009512;28;20402;-78
2021/09/24 10:35:07;;;;;;;12.98;8.60;;;;;;;34.78;17.12;97314.38;5011201;28;20125;-78
2021/09/24 10:37:35;;;;;;;6.03;2.85;;;;;;;35.26;16.29;97306.22;5007376;28;20076;-77
2021/09/24 10:40:26;;;;;;;5.93;2.42;;;;;;;35.96;15.92;97312.97;5022814;28;20050;-78
2021/09/24 10:42:58;;;;;;;5.30;2.67;;;;;;;36.21;15.93;97290.97;5026921;28;20030;-78
2021/09/24 10:45:30;;;;;;;8.82;2.88;;;;;;;36.25;15.44;97287.38;5027513;28;20029;-78
2021/09/24 10:48:25;;;;;;;7.10;2.83;;;;;;;36.01;15.17;97282.38;5027253;28;20048;-78
2021/09/24 10:51:05;;;;;;;3.97;2.50;;;;;;;36.55;15.42;97286.03;5011439;28;20498;-78
2021/09/24 10:53:40;;;;;;;2.60;2.40;;;;;;;37.68;14.63;97278.91;5004413;28;20098;-77
2021/09/24 10:56:05;;;;;;;3.88;2.20;;;;;;;36.93;14.41;97275.41;5012346;28;20583;-77
2021/09/24 10:58:31;;;;;;;2.92;2.65;;;;;;;37.12;14.85;97272.22;5013931;28;20089;-77
2021/09/24 11:01:12;;;;;;;3.38;2.35;;;;;;;37.81;13.67;97228.13;5013087;28;20026;-77
2021/09/24 11:03:59;;;;;;;2.50;2.30;;;;;;;38.16;13.61;97263.69;4997027;28;20042;-78
2021/09/24 11:06:46;;;;;;;7.50;6.38;;;;;;;37.16;14.61;97237.91;5006817;28;20035;-77
2021/09/24 11:09:17;;;;;;;6.68;2.85;;;;;;;37.11;15.14;97246.25;4989027;28;20030;-77
2021/09/24 11:11:45;;;;;;;3.77;2.73;;;;;;;37.54;14.72;97258.19;5002716;28;20474;-77
2021/09/24 11:14:38;;;;;;;3.47;2.90;;;;;;;37.17;15.21;97252.69;5007319;28;20026;-76
2021/09/24 11:17:08;;;;;;;5.45;2.85;;;;;;;36.79;15.21;97223.97;5005001;28;20097;-77
2021/09/24 11:19:45;;;;;;;6.10;3.30;;;;;;;37.04;15.52;97222.50;4997555;28;20093;-77
2021/09/24 11:22:20;;;;;;;4.10;2.83;;;;;;;37.12;15.02;97247.09;4980068;28;20069;-83
2021/09/24 11:25:07;;;;;;;3.92;2.33;;;;;;;36.94;14.54;97229.69;4979566;28;20113;-84
2021/09/24 11:27:37;;;;;;;3.25;2.50;;;;;;;37.29;14.75;97236.56;4991822;28;20513;-84
2021/09/24 11:30:04;;;;;;;5.78;2.85;;;;;;;37.29;15.01;97242.13;4986945;28;20036;-83